createdAt,value
2023-02-06T00:01:51.482Z,99251.44
2023-02-06T00:04:18.144Z,99228.66
2023-02-06T00:06:44.986Z,99244.38
2023-02-06T00:09:12.806Z,99278.25
2023-02-06T00:11:39.430Z,99336.84
2023-02-06T00:14:07.577Z,99361.06
2023-02-06T00:16:34.702Z,99371.63
2023-02-06T00:19:01.630Z,99273.38
2023-02-06T00:21:28.781Z,99218.94
2023-02-06T00:23:57.624Z,99309.03
2023-02-06T00:26:26.549Z,99310.72
2023-02-06T00:28:53.287Z,99226.31
2023-02-06T00:31:20.171Z,99182.28
2023-02-06T00:33:47.422Z,99219.25
2023-02-06T00:36:14.110Z,99152.50
2023-02-06T00:38:40.898Z,99109.63
2023-02-06T00:41:08.390Z,99063.88
2023-02-06T00:43:35.053Z,99075.81
2023-02-06T00:46:01.569Z,99125.84
2023-02-06T00:48:28.257Z,99151.09
2023-02-06T00:50:55.086Z,99112.31
2023-02-06T00:53:21.766Z,99060.78
2023-02-06T00:55:48.327Z,99033.38
2023-02-06T00:58:16.029Z,99028.25
2023-02-06T01:00:42.523Z,99081.25
2023-02-06T01:03:08.991Z,99068.59
2023-02-06T01:05:35.900Z,99023.13
2023-02-06T01:08:04.433Z,98959.94
2023-02-06T01:10:31.176Z,98878.94
2023-02-06T01:12:57.727Z,98803.25
2023-02-06T01:15:24.270Z,98756.22
2023-02-06T01:17:50.901Z,98781.50
2023-02-06T01:20:18.691Z,98849.31
2023-02-06T01:22:45.361Z,98955.03
2023-02-06T01:25:13.164Z,98960.72
2023-02-06T01:27:40.336Z,98949.66
2023-02-06T01:30:08.855Z,98912.44
2023-02-06T01:32:39.883Z,98885.09
2023-02-06T01:35:08.471Z,98881.75
2023-02-06T01:37:35.066Z,98874.03
2023-02-06T01:40:02.714Z,98866.75
2023-02-06T01:42:29.293Z,98851.19
2023-02-06T01:45:17.190Z,98838.81
2023-02-06T01:47:43.866Z,98801.44
2023-02-06T01:50:10.514Z,98803.88
2023-02-06T01:52:37.269Z,98846.78
2023-02-06T01:55:04.964Z,98837.22
2023-02-06T01:57:33.658Z,98827.75
2023-02-06T02:00:02.271Z,98815.41
2023-02-06T02:02:29.433Z,98783.19
2023-02-06T02:04:57.081Z,98797.16
2023-02-06T02:07:25.575Z,98808.09
2023-02-06T02:09:52.508Z,98817.31
2023-02-06T02:12:19.074Z,98871.56
2023-02-06T02:14:46.990Z,98894.19
2023-02-06T02:17:16.533Z,98916.34
2023-02-06T02:19:45.912Z,98892.81
2023-02-06T02:22:12.528Z,98867.06
2023-02-06T02:24:57.580Z,98875.03
2023-02-06T02:27:24.472Z,98895.94
2023-02-06T02:29:54.155Z,98909.31
2023-02-06T02:32:40.993Z,98920.38
2023-02-06T02:35:28.944Z,98903.91
2023-02-06T02:37:55.431Z,98913.22
2023-02-06T02:40:48.293Z,98928.94
2023-02-06T02:43:35.576Z,98945.16
2023-02-06T02:46:28.233Z,98929.50
2023-02-06T02:48:57.011Z,98916.91
2023-02-06T02:51:24.606Z,98919.13
2023-02-06T02:53:51.234Z,98927.31
2023-02-06T02:56:19.508Z,98951.84
2023-02-06T02:58:49.076Z,98948.41
2023-02-06T03:01:19.373Z,98918.41
2023-02-06T03:03:48.010Z,98960.34
2023-02-06T03:06:26.460Z,99046.06
2023-02-06T03:08:56.005Z,99061.00
2023-02-06T03:11:23.059Z,99058.56
2023-02-06T03:13:55.640Z,99068.88
2023-02-06T03:16:29.083Z,99131.19
2023-02-06T03:19:15.797Z,99239.84
2023-02-06T03:21:43.346Z,99233.28
2023-02-06T03:24:20.460Z,99185.44
2023-02-06T03:26:49.943Z,99190.94
2023-02-06T03:29:17.450Z,99149.41
2023-02-06T03:31:48.081Z,99130.56
2023-02-06T03:34:22.820Z,99119.53
2023-02-06T03:36:49.875Z,99099.44
2023-02-06T03:39:17.412Z,99082.28
2023-02-06T03:41:45.503Z,99072.13
2023-02-06T03:44:15.264Z,99032.75
2023-02-06T03:46:43.263Z,98986.38
2023-02-06T03:49:12.667Z,99063.28
2023-02-06T03:51:41.526Z,99150.91
2023-02-06T03:54:10.250Z,99222.41
2023-02-06T03:56:43.376Z,99213.53
2023-02-06T03:59:11.111Z,99222.28
2023-02-06T04:01:43.850Z,99189.75
2023-02-06T04:04:10.531Z,99193.69
2023-02-06T04:06:36.978Z,99184.84
2023-02-06T04:09:03.681Z,99192.66
2023-02-06T04:11:31.361Z,99198.63
2023-02-06T04:13:57.965Z,99183.00
2023-02-06T04:16:24.445Z,99195.69
2023-02-06T04:18:52.157Z,99190.75
2023-02-06T04:21:19.883Z,99233.72
2023-02-06T04:23:46.445Z,99239.50
2023-02-06T04:26:14.126Z,99243.16
2023-02-06T04:28:41.033Z,99240.09
2023-02-06T04:31:07.596Z,99227.41
2023-02-06T04:33:34.138Z,99231.19
2023-02-06T04:36:00.645Z,99226.66
2023-02-06T04:38:28.242Z,99222.88
2023-02-06T04:40:54.691Z,99207.28
2023-02-06T04:43:22.162Z,99214.59
2023-02-06T04:45:48.940Z,99253.88
2023-02-06T04:48:16.372Z,99235.94
2023-02-06T04:50:42.816Z,99238.78
2023-02-06T04:53:09.259Z,99287.44
2023-02-06T04:55:36.612Z,99381.97
2023-02-06T04:58:03.293Z,99306.28
2023-02-06T05:00:29.940Z,99298.78
2023-02-06T05:02:56.455Z,99454.22
2023-02-06T05:05:24.067Z,99410.41
2023-02-06T05:07:50.524Z,99320.41
2023-02-06T05:10:17.079Z,99207.38
2023-02-06T05:12:43.698Z,99189.59
2023-02-06T05:15:10.411Z,99359.72
2023-02-06T05:17:38.560Z,99367.19
2023-02-06T05:20:05.889Z,99394.34
2023-02-06T05:22:33.545Z,99386.19
2023-02-06T05:25:00.079Z,99370.56
2023-02-06T05:27:28.262Z,99336.28
2023-02-06T05:29:54.909Z,99327.13
2023-02-06T05:32:21.388Z,99258.78
2023-02-06T05:34:47.985Z,99227.53
2023-02-06T05:37:14.440Z,99205.63
2023-02-06T05:39:40.913Z,99229.16
2023-02-06T05:42:07.488Z,99244.16
2023-02-06T05:44:34.993Z,99227.53
2023-02-06T05:47:02.588Z,99237.66
2023-02-06T05:49:29.117Z,99231.97
2023-02-06T05:51:56.704Z,99194.66
2023-02-06T05:54:24.346Z,99172.75
2023-02-06T05:56:50.880Z,99170.28
2023-02-06T05:59:17.511Z,99246.38
2023-02-06T06:01:44.018Z,99242.16
2023-02-06T06:04:10.654Z,99233.47
2023-02-06T06:06:37.173Z,99229.78
2023-02-06T06:09:05.061Z,99207.13
2023-02-06T06:11:31.959Z,99159.75
2023-02-06T06:13:59.664Z,99157.91
2023-02-06T06:16:26.327Z,99169.84
2023-02-06T06:18:52.850Z,99165.56
2023-02-06T06:21:19.404Z,99121.59
2023-02-06T06:23:45.918Z,99094.22
2023-02-06T06:26:13.602Z,99040.03
2023-02-06T06:28:40.784Z,98998.13
2023-02-06T06:31:08.680Z,98973.50
2023-02-06T06:33:35.246Z,98991.66
2023-02-06T06:36:02.337Z,99021.97
2023-02-06T06:38:28.850Z,99011.53
2023-02-06T06:40:56.314Z,99009.00
2023-02-06T06:43:22.764Z,99071.69
2023-02-06T06:45:49.430Z,99084.63
2023-02-06T06:48:15.885Z,99080.50
2023-02-06T06:50:42.426Z,99127.25
2023-02-06T06:53:08.872Z,99195.47
2023-02-06T06:55:36.000Z,99252.66
2023-02-06T06:58:02.969Z,99253.53
2023-02-06T07:00:29.697Z,99308.69
2023-02-06T07:02:56.305Z,99328.94
2023-02-06T07:05:22.761Z,99357.94
2023-02-06T07:07:49.342Z,99373.25
2023-02-06T07:10:16.045Z,99388.66
2023-02-06T07:12:42.635Z,99396.38
2023-02-06T07:15:09.364Z,99406.97
2023-02-06T07:17:36.253Z,99383.91
2023-02-06T07:20:03.876Z,99374.38
2023-02-06T07:22:30.344Z,99403.72
2023-02-06T07:24:57.999Z,99382.44
2023-02-06T07:27:25.537Z,99351.00
2023-02-06T07:29:51.969Z,99376.94
2023-02-06T07:32:18.409Z,99380.00
2023-02-06T07:34:44.940Z,99455.59
2023-02-06T07:37:11.389Z,99485.63
2023-02-06T07:39:37.959Z,99472.78
2023-02-06T07:42:05.376Z,99457.94
2023-02-06T07:44:31.869Z,99439.63
2023-02-06T07:46:58.729Z,99406.66
2023-02-06T07:49:25.321Z,99383.97
2023-02-06T07:51:53.257Z,99372.81
2023-02-06T07:54:20.877Z,99375.47
2023-02-06T07:56:48.411Z,99385.22
2023-02-06T07:59:14.892Z,99384.63
2023-02-06T08:01:41.436Z,99407.19
2023-02-06T08:04:08.012Z,99410.44
2023-02-06T08:06:34.690Z,99409.41
2023-02-06T08:09:01.155Z,99409.81
2023-02-06T08:11:31.170Z,99404.75
2023-02-06T08:13:59.001Z,99417.75
2023-02-06T08:16:25.786Z,99422.06
2023-02-06T08:18:52.324Z,99419.41
2023-02-06T08:21:21.159Z,99428.13
2023-02-06T08:23:48.533Z,99446.47
2023-02-06T08:26:19.611Z,99454.00
2023-02-06T08:28:47.515Z,99441.38
2023-02-06T08:31:18.293Z,99426.72
2023-02-06T08:33:45.121Z,99438.28
2023-02-06T08:36:11.985Z,99442.16
2023-02-06T08:38:39.050Z,99440.06
2023-02-06T08:41:06.620Z,99433.56
2023-02-06T08:43:34.276Z,99437.19
2023-02-06T08:46:00.837Z,99445.94
2023-02-06T08:48:27.381Z,99454.69
2023-02-06T08:51:07.000Z,99440.97
2023-02-06T08:53:33.544Z,99425.38
2023-02-06T08:56:00.901Z,99420.16
2023-02-06T08:58:28.567Z,99423.53
2023-02-06T09:00:55.091Z,99415.91
2023-02-06T09:03:22.900Z,99422.56
2023-02-06T09:05:50.351Z,99426.00
2023-02-06T09:08:17.425Z,99423.47
2023-02-06T09:10:44.242Z,99425.88
2023-02-06T09:13:10.700Z,99425.03
2023-02-06T09:15:38.703Z,99407.09
2023-02-06T09:18:05.395Z,99394.72
2023-02-06T09:20:31.936Z,99385.66
2023-02-06T09:22:58.388Z,99368.53
2023-02-06T09:25:24.874Z,99360.19
2023-02-06T09:27:52.275Z,99351.63
2023-02-06T09:30:19.796Z,99355.66
2023-02-06T09:32:46.263Z,99361.94
2023-02-06T09:35:12.812Z,99340.50
2023-02-06T09:37:39.569Z,99325.53
2023-02-06T09:40:06.417Z,99312.16
2023-02-06T09:42:37.186Z,99305.03
2023-02-06T09:45:08.037Z,99296.47
2023-02-06T09:47:36.018Z,99289.56
2023-02-06T09:50:07.866Z,99292.44
2023-02-06T09:52:53.066Z,99288.38
2023-02-06T09:55:26.579Z,99281.31
2023-02-06T09:57:56.126Z,99286.75
2023-02-06T10:00:25.553Z,99284.31
2023-02-06T10:03:04.259Z,99282.19
2023-02-06T10:05:33.734Z,99282.03
2023-02-06T10:08:11.301Z,99297.09
2023-02-06T10:10:46.313Z,99310.13
2023-02-06T10:13:26.305Z,99336.88
2023-02-06T10:15:57.051Z,99360.97
2023-02-06T10:18:37.526Z,99375.19
2023-02-06T10:21:22.819Z,99397.53
2023-02-06T10:23:58.286Z,99398.91
2023-02-06T10:26:25.000Z,99415.09
2023-02-06T10:28:53.979Z,99450.44
2023-02-06T10:31:26.454Z,99476.72
2023-02-06T10:33:59.117Z,99503.41
2023-02-06T10:36:34.821Z,99519.53
2023-02-06T10:39:10.657Z,99542.03
2023-02-06T10:41:54.088Z,99557.34
2023-02-06T10:44:51.423Z,99579.50
2023-02-06T10:47:40.721Z,99594.53
2023-02-06T10:50:25.587Z,99621.47
2023-02-06T10:52:53.507Z,99634.44
2023-02-06T10:55:22.877Z,99654.84
2023-02-06T10:58:09.262Z,99674.00
2023-02-06T11:00:37.227Z,99686.16
2023-02-06T11:03:08.190Z,99788.00
2023-02-06T11:05:35.854Z,99813.06
2023-02-06T11:08:02.676Z,99859.16
2023-02-06T11:10:32.341Z,99930.34
2023-02-06T11:13:00.160Z,99918.25
2023-02-06T11:15:32.960Z,99930.88
2023-02-06T11:18:00.994Z,99952.69
2023-02-06T11:20:30.562Z,99950.75
2023-02-06T11:22:58.065Z,99980.91
2023-02-06T11:25:24.519Z,99982.00
2023-02-06T11:27:53.555Z,99997.13
2023-02-06T11:30:23.034Z,100018.28
2023-02-06T11:33:03.619Z,100000.59
2023-02-06T11:35:47.763Z,100011.41
2023-02-06T11:38:14.624Z,100012.94
2023-02-06T11:40:41.134Z,100025.84
2023-02-06T11:43:33.734Z,100038.41
2023-02-06T11:46:18.860Z,100031.50
2023-02-06T11:48:50.249Z,100055.38
2023-02-06T11:51:16.989Z,100048.34
2023-02-06T11:54:04.797Z,100092.94
2023-02-06T11:56:32.715Z,100019.25
2023-02-06T11:59:07.133Z,99994.09
2023-02-06T12:01:38.072Z,99995.66
2023-02-06T12:04:04.813Z,99964.72
2023-02-06T12:06:31.333Z,99996.19
2023-02-06T12:08:59.492Z,99949.56
2023-02-06T12:11:29.643Z,99934.13
2023-02-06T12:13:59.042Z,99957.09
2023-02-06T12:16:26.807Z,99934.72
2023-02-06T12:18:57.299Z,99919.00
2023-02-06T12:21:45.309Z,99920.59
2023-02-06T12:24:21.465Z,99896.94
2023-02-06T12:26:49.917Z,99911.78
2023-02-06T12:29:30.671Z,99913.53
2023-02-06T12:32:15.141Z,99895.78
2023-02-06T12:34:56.159Z,99885.63
2023-02-06T12:37:22.856Z,99902.84
2023-02-06T12:39:51.614Z,99911.78
2023-02-06T12:42:18.227Z,99943.13
2023-02-06T12:44:47.609Z,99912.69
2023-02-06T12:47:45.162Z,99951.75
2023-02-06T12:50:18.121Z,99978.88
2023-02-06T12:52:50.378Z,99980.19
2023-02-06T12:55:20.001Z,99979.38
2023-02-06T12:57:46.646Z,99973.69
2023-02-06T13:00:22.476Z,99984.25
2023-02-06T13:03:04.518Z,99981.06
2023-02-06T13:05:40.141Z,99981.81
2023-02-06T13:08:06.995Z,99990.69
2023-02-06T13:10:34.793Z,99993.03
2023-02-06T13:13:01.445Z,99967.03
2023-02-06T13:15:32.409Z,99973.69
2023-02-06T13:18:01.146Z,99993.94
2023-02-06T13:20:27.889Z,99982.63
2023-02-06T13:23:15.710Z,100009.84
2023-02-06T13:25:45.271Z,100012.69
2023-02-06T13:28:25.633Z,100006.53
2023-02-06T13:30:58.492Z,100001.63
2023-02-06T13:33:27.016Z,99995.47
2023-02-06T13:35:55.261Z,99973.50
2023-02-06T13:38:24.678Z,99994.88
2023-02-06T13:41:10.084Z,99991.13
2023-02-06T13:43:36.681Z,99918.66
2023-02-06T13:46:07.192Z,99874.50
2023-02-06T13:48:36.547Z,99842.50
2023-02-06T13:51:06.204Z,99868.31
2023-02-06T13:54:08.162Z,99894.19
2023-02-06T13:56:41.310Z,99863.59
2023-02-06T13:59:26.995Z,99831.22
2023-02-06T14:01:54.218Z,99867.53
2023-02-06T14:04:27.723Z,99856.81
2023-02-06T14:07:03.122Z,99849.50
2023-02-06T14:09:47.951Z,99856.84
2023-02-06T14:12:37.386Z,99814.78
2023-02-06T14:15:27.471Z,99864.28
2023-02-06T14:18:09.274Z,99861.16
2023-02-06T14:21:14.458Z,99866.84
2023-02-06T14:23:49.246Z,99903.31
2023-02-06T14:26:24.897Z,99926.56
2023-02-06T14:28:54.660Z,99909.63
2023-02-06T14:31:24.035Z,99916.81
2023-02-06T14:34:02.990Z,99919.59
2023-02-06T14:36:49.022Z,99923.88
2023-02-06T14:39:33.910Z,99929.56
2023-02-06T14:42:05.645Z,99891.47
2023-02-06T14:44:32.279Z,99825.69
2023-02-06T14:46:59.031Z,99793.19
2023-02-06T14:49:36.286Z,99746.19
2023-02-06T14:52:03.440Z,99747.28
2023-02-06T14:54:34.792Z,99721.06
2023-02-06T14:57:03.484Z,99699.00
2023-02-06T14:59:30.895Z,99682.22
2023-02-06T15:01:58.517Z,99716.28
2023-02-06T15:04:29.527Z,99727.38
2023-02-06T15:07:00.699Z,99702.09
2023-02-06T15:09:31.277Z,99666.09
2023-02-06T15:12:00.187Z,99634.34
2023-02-06T15:14:30.857Z,99598.75
2023-02-06T15:16:59.364Z,99578.44
2023-02-06T15:19:27.188Z,99534.63
2023-02-06T15:22:01.120Z,99504.81
2023-02-06T15:24:33.419Z,99483.75
2023-02-06T15:27:06.854Z,99475.97
2023-02-06T15:29:33.338Z,99486.50
2023-02-06T15:32:19.195Z,99503.97
2023-02-06T15:34:47.227Z,99492.06
2023-02-06T15:37:22.136Z,99489.56
2023-02-06T15:39:49.044Z,99495.72
2023-02-06T15:42:15.860Z,99459.44
2023-02-06T15:44:42.620Z,99430.97
2023-02-06T15:47:13.041Z,99429.34
2023-02-06T15:49:43.985Z,99409.34
2023-02-06T15:52:12.589Z,99411.69
2023-02-06T15:54:43.627Z,99376.41
2023-02-06T15:57:39.722Z,99357.66
2023-02-06T16:00:09.806Z,99344.06
2023-02-06T16:02:37.610Z,99349.66
2023-02-06T16:05:05.413Z,99311.13
2023-02-06T16:07:35.668Z,99280.63
2023-02-06T16:10:09.334Z,99252.44
2023-02-06T16:12:38.992Z,99237.00
2023-02-06T16:15:24.224Z,99295.44
2023-02-06T16:17:51.882Z,99317.31
2023-02-06T16:20:33.806Z,99272.66
2023-02-06T16:23:18.990Z,99240.31
2023-02-06T16:25:46.689Z,99187.75
2023-02-06T16:28:23.112Z,99183.94
2023-02-06T16:30:53.879Z,99167.91
2023-02-06T16:33:33.931Z,99177.47
2023-02-06T16:36:00.664Z,99217.09
2023-02-06T16:38:27.136Z,99237.59
2023-02-06T16:40:54.370Z,99221.13
2023-02-06T16:43:20.927Z,99203.34
2023-02-06T16:45:50.411Z,99187.84
2023-02-06T16:48:17.802Z,99158.03
2023-02-06T16:50:45.769Z,99151.28
2023-02-06T16:53:25.549Z,99151.94
2023-02-06T16:55:52.064Z,99166.34
2023-02-06T16:58:23.109Z,99152.59
2023-02-06T17:00:52.577Z,99143.00
2023-02-06T17:03:19.076Z,99125.38
2023-02-06T17:05:46.057Z,99174.91
2023-02-06T17:08:17.845Z,99205.06
2023-02-06T17:10:44.984Z,99190.25
2023-02-06T17:13:19.137Z,99173.25
2023-02-06T17:15:49.136Z,99171.88
2023-02-06T17:18:17.046Z,99208.97
2023-02-06T17:20:45.060Z,99257.31
2023-02-06T17:23:11.899Z,99297.72
2023-02-06T17:25:40.253Z,99338.72
2023-02-06T17:28:08.282Z,99360.13
2023-02-06T17:30:36.066Z,99375.44
2023-02-06T17:33:03.210Z,99363.41
2023-02-06T17:35:30.246Z,99395.03
2023-02-06T17:37:57.838Z,99402.00
2023-02-06T17:40:27.086Z,99404.06
2023-02-06T17:42:54.143Z,99414.25
2023-02-06T17:45:20.778Z,99480.41
2023-02-06T17:47:47.417Z,99498.03
2023-02-06T17:50:15.271Z,99504.31
2023-02-06T17:52:42.962Z,99525.03
2023-02-06T17:55:09.728Z,99564.75
2023-02-06T17:57:36.506Z,99574.53
2023-02-06T18:00:04.752Z,99570.56
2023-02-06T18:02:31.955Z,99556.63
2023-02-06T18:04:59.993Z,99568.81
2023-02-06T18:07:28.066Z,99546.28
2023-02-06T18:09:54.591Z,99519.63
2023-02-06T18:12:21.294Z,99511.28
2023-02-06T18:14:49.948Z,99504.81
2023-02-06T18:17:17.716Z,99473.41
2023-02-06T18:19:44.309Z,99431.69
2023-02-06T18:22:12.342Z,99408.22
2023-02-06T18:24:39.898Z,99407.75
2023-02-06T18:27:09.680Z,99385.44
2023-02-06T18:29:49.484Z,99348.84
2023-02-06T18:32:28.710Z,99322.88
2023-02-06T18:34:55.228Z,99320.63
2023-02-06T18:37:21.708Z,99283.19
2023-02-06T18:39:48.299Z,99275.19
2023-02-06T18:42:33.076Z,99263.75
2023-02-06T18:44:59.550Z,99284.44
2023-02-06T18:47:26.017Z,99260.44
2023-02-06T18:49:53.738Z,99220.34
2023-02-06T18:52:20.327Z,99217.75
2023-02-06T18:54:49.534Z,99200.25
2023-02-06T18:57:15.998Z,99164.91
2023-02-06T18:59:42.535Z,99122.38
2023-02-06T19:02:10.463Z,99119.59
2023-02-06T19:04:36.984Z,99119.84
2023-02-06T19:07:04.114Z,99123.47
2023-02-06T19:09:30.641Z,99084.53
2023-02-06T19:11:57.157Z,99068.06
2023-02-06T19:14:25.446Z,99054.13
2023-02-06T19:16:52.450Z,99023.50
2023-02-06T19:19:19.382Z,98991.63
2023-02-06T19:21:46.150Z,98963.97
2023-02-06T19:24:13.870Z,98970.69
2023-02-06T19:26:42.125Z,98961.06
2023-02-06T19:29:09.580Z,98916.78
2023-02-06T19:31:39.198Z,98921.63
2023-02-06T19:34:06.519Z,98974.41
2023-02-06T19:36:33.003Z,99033.91
2023-02-06T19:39:00.782Z,99030.81
2023-02-06T19:41:28.454Z,99047.78
2023-02-06T19:43:55.688Z,99019.19
2023-02-06T19:46:23.887Z,98996.09
2023-02-06T19:48:51.072Z,98952.44
2023-02-06T19:51:20.292Z,98947.41
2023-02-06T19:53:48.046Z,98945.72
2023-02-06T19:56:18.470Z,98920.03
2023-02-06T19:58:45.065Z,98949.31
2023-02-06T20:01:12.865Z,98962.66
2023-02-06T20:03:39.779Z,98923.50
2023-02-06T20:06:07.992Z,98920.84
2023-02-06T20:08:34.728Z,98900.38
2023-02-06T20:11:08.469Z,98877.94
2023-02-06T20:13:35.655Z,98838.53
2023-02-06T20:16:07.006Z,98839.41
2023-02-06T20:18:34.611Z,98816.09
2023-02-06T20:21:01.222Z,98813.34
2023-02-06T20:23:28.057Z,98826.63
2023-02-06T20:25:55.460Z,98785.97
2023-02-06T20:28:24.481Z,98731.66
2023-02-06T20:30:51.101Z,98698.13
2023-02-06T20:33:18.636Z,98689.63
2023-02-06T20:35:45.877Z,98693.75
2023-02-06T20:38:13.720Z,98723.34
2023-02-06T20:40:43.791Z,98703.78
2023-02-06T20:43:10.386Z,98689.56
2023-02-06T20:45:37.213Z,98688.41
2023-02-06T20:48:03.932Z,98664.97
2023-02-06T20:50:32.334Z,98587.88
2023-02-06T20:52:58.901Z,98558.03
2023-02-06T20:55:26.286Z,98585.09
2023-02-06T20:57:52.725Z,98531.38
2023-02-06T21:00:19.332Z,98519.06
2023-02-06T21:02:45.900Z,98472.78
2023-02-06T21:05:12.446Z,98446.66
2023-02-06T21:07:40.112Z,98387.47
2023-02-06T21:10:08.637Z,98369.84
2023-02-06T21:12:35.084Z,98346.38
2023-02-06T21:15:01.590Z,98362.38
2023-02-06T21:17:28.247Z,98412.44
2023-02-06T21:19:54.696Z,98439.56
2023-02-06T21:22:22.231Z,98437.94
2023-02-06T21:24:48.728Z,98452.38
2023-02-06T21:27:16.322Z,98466.75
2023-02-06T21:29:43.517Z,98490.63
2023-02-06T21:32:13.972Z,98484.72
2023-02-06T21:34:41.227Z,98455.97
2023-02-06T21:37:07.755Z,98448.00
2023-02-06T21:39:34.473Z,98435.50
2023-02-06T21:42:01.721Z,98427.22
2023-02-06T21:44:28.984Z,98409.38
2023-02-06T21:46:56.159Z,98356.66
2023-02-06T21:49:23.438Z,98337.22
2023-02-06T21:51:53.262Z,98315.38
2023-02-06T21:54:21.101Z,98290.31
2023-02-06T21:56:47.660Z,98238.09
2023-02-06T21:59:14.145Z,98201.03
2023-02-06T22:01:41.196Z,98158.09
2023-02-06T22:04:09.096Z,98162.38
2023-02-06T22:06:37.106Z,98140.81
2023-02-06T22:09:09.913Z,98110.13
2023-02-06T22:11:37.425Z,98058.34
2023-02-06T22:14:08.616Z,98045.00
2023-02-06T22:16:36.148Z,98030.59
2023-02-06T22:19:03.115Z,98001.78
2023-02-06T22:21:30.862Z,97991.38
2023-02-06T22:23:58.654Z,97969.44
2023-02-06T22:26:25.741Z,97956.88
2023-02-06T22:28:52.947Z,97952.09
2023-02-06T22:31:24.107Z,97934.75
2023-02-06T22:33:50.982Z,97907.13
2023-02-06T22:36:19.034Z,97884.53
2023-02-06T22:38:47.523Z,97875.72
2023-02-06T22:41:16.926Z,97848.63
2023-02-06T22:43:44.032Z,97817.53
2023-02-06T22:46:16.900Z,97787.69
2023-02-06T22:48:43.434Z,97793.59
2023-02-06T22:51:10.788Z,97787.25
2023-02-06T22:53:39.701Z,97781.00
2023-02-06T22:56:26.109Z,97762.09
2023-02-06T22:59:07.373Z,97766.41
2023-02-06T23:01:38.167Z,97777.09
2023-02-06T23:04:06.569Z,97772.22
2023-02-06T23:06:34.350Z,97764.78
2023-02-06T23:09:01.498Z,97765.28
2023-02-06T23:11:29.548Z,97777.84
2023-02-06T23:13:57.228Z,97800.38
2023-02-06T23:16:23.812Z,97805.66
2023-02-06T23:18:51.259Z,97803.88
2023-02-06T23:21:18.639Z,97813.81
2023-02-06T23:23:45.176Z,97830.16
2023-02-06T23:26:13.726Z,97844.03
2023-02-06T23:28:41.017Z,97843.97
2023-02-06T23:31:08.014Z,97840.38
2023-02-06T23:33:34.638Z,97868.03
2023-02-06T23:36:06.765Z,97874.69
2023-02-06T23:38:34.419Z,97876.50
2023-02-06T23:41:18.758Z,97886.31
2023-02-06T23:43:49.277Z,97896.13
2023-02-06T23:46:16.873Z,97906.88
2023-02-06T23:48:43.413Z,97923.47
2023-02-06T23:51:09.975Z,97936.06
2023-02-06T23:53:36.533Z,97934.34
2023-02-06T23:56:08.877Z,97926.47
2023-02-06T23:58:35.769Z,97945.28
